Time;durP1;ratioP1;P1;durP2;ratioP2;P2;SDS_P1;SDS_P2;PMS_P1;PMS_P2;Temp;Humidity;BMP_temperature;BMP_pressure;BME280_temperature;BME280_humidity;BME280_pressure;Samples;Min_cycle;Max_cycle;Signal;HPM_P1;HPM_P2
2022/10/29 00:00:59;;;;;;;6.43;2.75;;;;;;;14.43;100.00;99239.66;4133334;28;20313;-49
2022/10/29 00:03:01;;;;;;;4.18;2.75;;;;;;;14.48;100.00;99231.44;4130229;28;20210;-49
2022/10/29 00:05:03;;;;;;;3.00;2.60;;;;;;;14.36;100.00;99233.50;4134740;28;20209;-49
2022/10/29 00:07:05;;;;;;;4.50;3.28;;;;;;;14.32;100.00;99232.38;4132283;28;20735;-49
2022/10/29 00:09:06;;;;;;;3.70;2.72;;;;;;;14.30;100.00;99231.78;4130448;28;20206;-49
2022/10/29 00:11:12;;;;;;;3.67;2.92;;;;;;;14.26;100.00;99236.16;4136628;28;20760;-49
2022/10/29 00:13:14;;;;;;;2.80;2.60;;;;;;;14.29;100.00;99241.13;4146687;28;20295;-49
2022/10/29 00:15:16;;;;;;;4.45;2.33;;;;;;;14.30;100.00;99231.78;4129860;28;20710;-49
2022/10/29 00:17:17;;;;;;;6.07;3.25;;;;;;;14.23;100.00;99233.88;4129815;28;20695;-49
2022/10/29 00:19:19;;;;;;;4.28;2.95;;;;;;;14.24;100.00;99232.78;4129443;28;20314;-49
2022/10/29 00:21:24;;;;;;;3.50;2.97;;;;;;;14.21;100.00;99227.81;4129468;28;20707;-49
2022/10/29 00:23:26;;;;;;;6.13;3.28;;;;;;;14.22;100.00;99223.97;4144142;28;20204;-49
2022/10/29 00:25:27;;;;;;;5.97;3.28;;;;;;;14.19;100.00;99224.50;4131866;28;20424;-49
2022/10/29 00:27:29;;;;;;;3.88;2.85;;;;;;;14.19;100.00;99227.25;4134625;28;20316;-49
2022/10/29 00:29:31;;;;;;;5.90;3.60;;;;;;;14.15;100.00;99226.06;4131077;28;20321;-49
2022/10/29 00:31:33;;;;;;;3.78;2.92;;;;;;;14.14;100.00;99223.53;4130825;28;20587;-49
2022/10/29 00:33:34;;;;;;;5.25;3.30;;;;;;;14.09;100.00;99224.31;4131417;28;20269;-49
2022/10/29 00:35:36;;;;;;;8.05;3.25;;;;;;;14.05;100.00;99228.69;4133354;28;20212;-49
2022/10/29 00:37:39;;;;;;;3.58;2.58;;;;;;;14.04;100.00;99232.50;4130160;28;20290;-48
2022/10/29 00:39:41;;;;;;;8.52;3.15;;;;;;;14.07;100.00;99240.25;4132707;28;20316;-49
2022/10/29 00:41:43;;;;;;;4.38;2.90;;;;;;;14.07;100.00;99237.50;4131614;28;20607;-50
2022/10/29 00:43:50;;;;;;;3.50;2.70;;;;;;;14.05;100.00;99241.59;4131530;28;20202;-49
2022/10/29 00:45:58;;;;;;;5.05;2.30;;;;;;;13.99;100.00;99246.22;4136624;28;20233;-50
2022/10/29 00:48:00;;;;;;;4.03;2.75;;;;;;;13.99;100.00;99242.63;4123579;28;20295;-50
2022/10/29 00:50:07;;;;;;;3.22;2.83;;;;;;;13.91;100.00;99246.63;4119979;28;20213;-49
2022/10/29 00:52:09;;;;;;;4.57;2.72;;;;;;;13.91;100.00;99249.38;4165721;28;20213;-49
2022/10/29 00:54:12;;;;;;;3.88;3.28;;;;;;;13.88;100.00;99243.56;4136519;28;20213;-49
2022/10/29 00:56:14;;;;;;;7.00;3.53;;;;;;;13.85;100.00;99244.91;4131731;28;20568;-49
2022/10/29 00:58:16;;;;;;;2.90;2.60;;;;;;;13.77;100.00;99250.81;4131978;28;20214;-49
2022/10/29 01:00:19;;;;;;;5.18;2.20;;;;;;;13.76;100.00;99246.41;4144016;28;20208;-48
2022/10/29 01:02:21;;;;;;;3.83;3.08;;;;;;;13.79;100.00;99239.56;4130720;28;20197;-48
2022/10/29 01:04:24;;;;;;;4.15;2.83;;;;;;;13.74;100.00;99237.59;4134043;28;20865;-50
2022/10/29 01:06:30;;;;;;;3.85;3.08;;;;;;;13.72;100.00;99241.69;4134667;28;20729;-49
2022/10/29 01:08:32;;;;;;;3.90;2.63;;;;;;;13.61;100.00;99243.44;4132298;28;20796;-49
2022/10/29 01:11:15;;;;;;;4.60;3.03;;;;;;;13.64;100.00;99253.94;4133954;28;20208;-49
2022/10/29 01:13:25;;;;;;;3.33;2.60;;;;;;;13.62;100.00;99245.09;4129842;28;20210;-49
2022/10/29 01:15:36;;;;;;;9.38;3.60;;;;;;;13.65;100.00;99250.13;4132594;28;20329;-48
2022/10/29 01:18:04;;;;;;;4.32;3.88;;;;;;;13.57;100.00;99245.00;4146340;28;20785;-49
2022/10/29 01:20:50;;;;;;;6.13;3.70;;;;;;;13.52;100.00;99244.97;4130568;28;20293;-49
2022/10/29 01:23:02;;;;;;;3.90;3.47;;;;;;;13.60;100.00;99236.28;4123568;28;20219;-50
2022/10/29 01:25:21;;;;;;;3.45;2.40;;;;;;;13.56;100.00;99234.28;4132106;28;20198;-49
2022/10/29 01:27:47;;;;;;;4.53;2.45;;;;;;;13.48;100.00;99230.03;4136826;28;20828;-48
2022/10/29 01:29:59;;;;;;;5.32;2.53;;;;;;;13.56;100.00;99229.59;4139817;28;20680;-49
2022/10/29 01:32:09;;;;;;;2.97;2.22;;;;;;;13.46;100.00;99223.97;4147124;28;20213;-49
2022/10/29 01:34:39;;;;;;;3.97;3.03;;;;;;;13.46;100.00;99232.22;4132158;28;20221;-48
2022/10/29 01:36:47;;;;;;;3.33;3.03;;;;;;;13.45;100.00;99227.81;4133859;28;20257;-49
2022/10/29 01:38:52;;;;;;;3.97;2.55;;;;;;;13.42;100.00;99231.03;4147826;28;20295;-49
2022/10/29 01:41:00;;;;;;;3.08;2.83;;;;;;;13.38;100.00;99227.09;4134873;28;20201;-53
2022/10/29 01:43:38;;;;;;;7.75;2.50;;;;;;;13.38;100.00;99218.84;4139512;28;20244;-49
2022/10/29 01:45:48;;;;;;;3.88;3.13;;;;;;;13.31;100.00;99220.94;4137549;28;20205;-49
2022/10/29 01:48:14;;;;;;;10.43;3.22;;;;;;;13.26;100.00;99218.16;4164303;28;20211;-49
2022/10/29 01:50:19;;;;;;;3.30;2.50;;;;;;;13.32;100.00;99211.66;4121416;28;20237;-48
2022/10/29 01:52:21;;;;;;;2.67;2.47;;;;;;;13.37;100.00;99202.63;4120757;28;20212;-48
2022/10/29 01:54:23;;;;;;;5.40;2.85;;;;;;;13.30;100.00;99202.78;4131302;28;20627;-49
2022/10/29 01:56:25;;;;;;;3.13;2.20;;;;;;;13.18;100.00;99199.28;4132538;28;20249;-49
2022/10/29 01:58:26;;;;;;;3.03;2.58;;;;;;;13.16;100.00;99198.72;4135269;28;20233;-49
2022/10/29 02:00:36;;;;;;;5.13;2.42;;;;;;;13.11;100.00;99201.38;4131548;28;20967;-49
2022/10/29 02:03:15;;;;;;;3.80;3.35;;;;;;;13.16;100.00;99201.47;4131731;28;20897;-49
2022/10/29 02:05:32;;;;;;;4.72;2.97;;;;;;;13.12;100.00;99200.31;4131819;28;20208;-49
2022/10/29 02:07:36;;;;;;;3.85;2.78;;;;;;;13.13;100.00;99204.72;4139019;28;20201;-48
2022/10/29 02:09:38;;;;;;;3.20;2.90;;;;;;;13.16;100.00;99195.97;4148631;28;20312;-49
2022/10/29 02:12:02;;;;;;;3.60;3.28;;;;;;;13.09;100.00;99203.56;4132475;28;20296;-49
2022/10/29 02:14:09;;;;;;;3.55;3.25;;;;;;;13.09;100.00;99206.28;4148319;28;20231;-48
2022/10/29 02:16:11;;;;;;;4.35;2.65;;;;;;;13.07;100.00;99208.47;4146540;28;20225;-48
2022/10/29 02:18:13;;;;;;;4.57;4.15;;;;;;;13.08;100.00;99210.13;4128073;28;20219;-49
2022/10/29 02:20:16;;;;;;;6.38;2.80;;;;;;;13.10;100.00;99207.97;4134972;28;20292;-49
2022/10/29 02:22:17;;;;;;;3.58;3.00;;;;;;;13.10;100.00;99210.72;4133180;28;20301;-48
2022/10/29 02:24:19;;;;;;;3.05;2.75;;;;;;;13.05;100.00;99215.28;4148147;28;20304;-50
2022/10/29 02:26:21;;;;;;;8.48;3.90;;;;;;;13.06;100.00;99222.44;4130199;28;20231;-49
2022/10/29 02:28:22;;;;;;;12.45;3.17;;;;;;;13.13;100.00;99212.13;4130862;28;20686;-50
2022/10/29 02:30:24;;;;;;;3.47;3.03;;;;;;;13.15;100.00;99210.81;4137696;28;20217;-49
2022/10/29 02:32:26;;;;;;;4.82;3.42;;;;;;;13.12;100.00;99208.56;4136416;28;20368;-49
2022/10/29 02:34:27;;;;;;;3.25;2.95;;;;;;;13.21;100.00;99211.69;4137760;28;20206;-49
2022/10/29 02:36:29;;;;;;;4.55;3.92;;;;;;;13.14;100.00;99198.16;4136307;28;20229;-49
2022/10/29 02:38:31;;;;;;;3.20;2.83;;;;;;;13.14;100.00;99198.16;4147871;28;20426;-49
2022/10/29 02:40:32;;;;;;;4.95;4.22;;;;;;;13.13;100.00;99201.97;4131826;28;20209;-49
2022/10/29 02:42:34;;;;;;;3.67;3.17;;;;;;;13.13;100.00;99193.75;4129026;28;20205;-49
2022/10/29 02:44:36;;;;;;;3.17;2.97;;;;;;;13.11;100.00;99192.31;4131418;28;22076;-50
2022/10/29 02:46:38;;;;;;;2.35;2.15;;;;;;;13.08;100.00;99199.16;4136879;28;20225;-49
2022/10/29 02:48:40;;;;;;;6.00;3.15;;;;;;;13.11;100.00;99187.63;4145211;28;20213;-49
2022/10/29 02:50:42;;;;;;;3.72;3.42;;;;;;;13.11;100.00;99182.13;4132534;28;20237;-49
2022/10/29 02:52:44;;;;;;;3.25;2.92;;;;;;;13.05;100.00;99183.13;4133777;28;20656;-49
2022/10/29 02:54:45;;;;;;;3.88;3.35;;;;;;;13.08;100.00;99187.31;4143547;28;20213;-51
2022/10/29 02:56:47;;;;;;;7.95;2.97;;;;;;;13.07;100.00;99181.00;4134195;28;21109;-49
2022/10/29 02:58:48;;;;;;;2.95;2.75;;;;;;;13.02;100.00;99189.16;4118444;28;20207;-49
2022/10/29 03:00:51;;;;;;;5.15;3.72;;;;;;;13.04;100.00;99186.16;4135634;28;20201;-49
2022/10/29 03:02:52;;;;;;;3.80;2.72;;;;;;;13.04;100.00;99186.16;4132541;28;20212;-49
2022/10/29 03:04:55;;;;;;;4.93;3.47;;;;;;;13.00;100.00;99195.97;4130078;28;20206;-49
2022/10/29 03:07:01;;;;;;;2.95;2.55;;;;;;;13.00;100.00;99188.56;4146574;28;20718;-50
2022/10/29 03:09:03;;;;;;;75.15;8.70;;;;;;;12.95;100.00;99190.38;4130844;28;20206;-49
2022/10/29 03:11:05;;;;;;;8.77;3.35;;;;;;;12.95;100.00;99193.97;4130148;28;20563;-50
2022/10/29 03:13:06;;;;;;;3.53;2.95;;;;;;;12.90;100.00;99191.09;4129656;28;20236;-49
2022/10/29 03:15:08;;;;;;;5.03;2.90;;;;;;;12.85;100.00;99199.25;4130663;28;20216;-50
2022/10/29 03:17:10;;;;;;;3.22;2.28;;;;;;;12.83;100.00;99192.34;4115003;28;20241;-50
2022/10/29 03:19:12;;;;;;;3.40;2.50;;;;;;;12.82;100.00;99180.53;4130489;28;20212;-49
2022/10/29 03:21:13;;;;;;;3.50;3.13;;;;;;;12.89;100.00;99178.44;4130955;28;20208;-49
2022/10/29 03:23:15;;;;;;;4.28;3.38;;;;;;;12.86;100.00;99176.22;4130957;28;20320;-48
2022/10/29 03:25:17;;;;;;;3.90;3.50;;;;;;;12.81;100.00;99187.09;4129288;28;20205;-49
2022/10/29 03:27:18;;;;;;;9.85;3.42;;;;;;;12.82;100.00;99177.78;4134678;28;22534;-49
2022/10/29 03:29:20;;;;;;;3.65;2.80;;;;;;;12.85;100.00;99177.25;4136592;28;20876;-49
2022/10/29 03:31:22;;;;;;;6.45;3.83;;;;;;;12.90;100.00;99177.34;4131385;28;20210;-50
2022/10/29 03:33:25;;;;;;;3.63;3.33;;;;;;;12.83;100.00;99179.44;4129388;28;20236;-50
2022/10/29 03:35:27;;;;;;;4.75;2.55;;;;;;;12.83;100.00;99173.13;4132839;28;20328;-52
2022/10/29 03:37:28;;;;;;;3.80;3.22;;;;;;;12.88;100.00;99178.69;4133616;28;20233;-49
2022/10/29 03:39:30;;;;;;;4.70;3.90;;;;;;;12.86;100.00;99175.38;4133989;28;20313;-48
2022/10/29 03:41:32;;;;;;;3.80;2.88;;;;;;;12.87;100.00;99175.13;4132902;28;20209;-49
2022/10/29 03:43:35;;;;;;;2.80;2.55;;;;;;;12.88;100.00;99171.28;4127130;28;20221;-49
2022/10/29 03:45:36;;;;;;;5.53;4.32;;;;;;;12.94;100.00;99170.31;4132018;28;20561;-49
2022/10/29 03:47:38;;;;;;;9.20;3.05;;;;;;;12.92;100.00;99166.97;4144855;28;20216;-50
2022/10/29 03:49:40;;;;;;;4.47;3.75;;;;;;;12.93;100.00;99168.63;4145980;28;20220;-49
2022/10/29 03:51:41;;;;;;;4.90;3.22;;;;;;;13.02;100.00;99172.66;4131873;28;20615;-49
2022/10/29 03:53:43;;;;;;;6.60;3.17;;;;;;;12.95;100.00;99169.25;4130826;28;20222;-49
2022/10/29 03:55:45;;;;;;;3.88;2.90;;;;;;;12.90;100.00;99171.06;4129978;28;20256;-50
2022/10/29 03:57:46;;;;;;;4.35;3.10;;;;;;;12.92;100.00;99161.47;4129191;28;20644;-50
2022/10/29 03:59:48;;;;;;;3.80;3.50;;;;;;;12.99;100.00;99166.84;4119141;28;20706;-49
2022/10/29 04:01:53;;;;;;;6.72;4.18;;;;;;;13.01;100.00;99167.41;4135347;28;20205;-49
2022/10/29 04:03:55;;;;;;;3.92;3.50;;;;;;;13.00;100.00;99163.84;4132908;28;20205;-49
2022/10/29 04:05:57;;;;;;;5.80;3.72;;;;;;;12.90;100.00;99168.31;4135206;28;20224;-50
2022/10/29 04:07:59;;;;;;;4.65;3.83;;;;;;;12.85;100.00;99163.53;4130324;28;20335;-50
2022/10/29 04:10:01;;;;;;;3.38;3.03;;;;;;;12.90;100.00;99162.81;4134204;28;20325;-49
2022/10/29 04:12:03;;;;;;;3.33;3.05;;;;;;;12.87;100.00;99163.28;4162193;28;20282;-49
2022/10/29 04:14:05;;;;;;;3.28;2.97;;;;;;;12.95;100.00;99172.00;4134968;28;20224;-50
2022/10/29 04:16:06;;;;;;;5.45;4.03;;;;;;;12.95;100.00;99172.00;4134159;28;20231;-49
2022/10/29 04:18:09;;;;;;;7.93;2.83;;;;;;;12.93;100.00;99162.31;4143128;28;20206;-49
2022/10/29 04:20:11;;;;;;;3.67;3.30;;;;;;;12.91;100.00;99165.28;4131531;28;20202;-50
2022/10/29 04:22:32;;;;;;;3.53;3.22;;;;;;;12.94;100.00;99166.72;4157011;28;20636;-50
2022/10/29 04:24:54;;;;;;;3.45;3.15;;;;;;;12.92;100.00;99172.47;4134918;28;20320;-50
2022/10/29 04:27:16;;;;;;;8.60;3.15;;;;;;;12.95;100.00;99166.50;4135828;28;20292;-50
2022/10/29 04:29:37;;;;;;;4.18;3.20;;;;;;;12.96;100.00;99165.41;4130001;28;20217;-50
2022/10/29 04:31:39;;;;;;;3.85;3.55;;;;;;;12.96;100.00;99157.16;4120715;28;20477;-48
2022/10/29 04:33:40;;;;;;;6.05;3.30;;;;;;;12.99;100.00;99159.44;4133383;28;20673;-49
2022/10/29 04:35:42;;;;;;;3.67;2.67;;;;;;;12.95;100.00;99161.00;4146174;28;20809;-50
2022/10/29 04:37:44;;;;;;;6.10;3.47;;;;;;;12.95;100.00;99161.00;4132984;28;20211;-49
2022/10/29 04:39:45;;;;;;;5.97;2.53;;;;;;;12.91;100.00;99162.53;4131783;28;20201;-49
2022/10/29 04:41:48;;;;;;;3.53;3.22;;;;;;;12.90;100.00;99166.38;4134489;28;20213;-49
2022/10/29 04:43:50;;;;;;;3.78;3.10;;;;;;;12.91;100.00;99173.53;4129773;28;20194;-49
2022/10/29 04:45:52;;;;;;;4.82;2.97;;;;;;;12.92;100.00;99168.88;4128286;28;20599;-50
2022/10/29 04:48:04;;;;;;;4.05;3.55;;;;;;;12.92;100.00;99171.63;4130969;28;20211;-50
2022/10/29 04:50:06;;;;;;;7.68;2.83;;;;;;;12.98;100.00;99171.47;4144716;28;20208;-49
2022/10/29 04:52:08;;;;;;;4.30;3.08;;;;;;;12.96;100.00;99178.34;4130451;28;20687;-49
2022/10/29 04:54:09;;;;;;;4.03;3.22;;;;;;;12.95;100.00;99177.47;4128819;28;20225;-49
2022/10/29 04:56:11;;;;;;;5.43;3.85;;;;;;;12.98;100.00;99170.66;4127879;28;20312;-49
2022/10/29 04:58:18;;;;;;;6.57;3.85;;;;;;;13.00;100.00;99168.50;4131493;28;20209;-51
2022/10/29 05:00:20;;;;;;;3.83;2.90;;;;;;;13.03;100.00;99168.81;4143765;28;20205;-50
2022/10/29 05:02:22;;;;;;;4.07;3.17;;;;;;;12.98;100.00;99159.69;4145388;28;20688;-49
2022/10/29 05:04:23;;;;;;;3.78;3.35;;;;;;;12.96;100.00;99150.88;4130011;28;20213;-49
2022/10/29 05:06:25;;;;;;;7.20;3.78;;;;;;;12.89;100.00;99161.97;4129097;28;20221;-48
2022/10/29 05:08:26;;;;;;;4.65;3.85;;;;;;;12.92;100.00;99156.00;4130936;28;20232;-49
2022/10/29 05:10:33;;;;;;;5.93;3.00;;;;;;;12.88;100.00;99143.81;4132739;28;20311;-49
2022/10/29 05:12:35;;;;;;;4.15;3.70;;;;;;;12.85;100.00;99155.28;4142897;28;20581;-50
2022/10/29 05:14:36;;;;;;;5.95;4.15;;;;;;;12.84;100.00;99153.63;4132769;28;20235;-48
2022/10/29 05:16:38;;;;;;;4.03;2.85;;;;;;;12.86;100.00;99162.47;4142887;28;20690;-49
2022/10/29 05:18:39;;;;;;;3.58;2.47;;;;;;;12.89;100.00;99159.22;4144100;28;20659;-50
2022/10/29 05:20:41;;;;;;;3.67;3.38;;;;;;;12.87;100.00;99155.91;4133079;28;20211;-49
2022/10/29 05:22:43;;;;;;;4.28;3.50;;;;;;;12.92;100.00;99153.25;4132733;28;20229;-49
2022/10/29 05:24:44;;;;;;;3.42;3.15;;;;;;;13.01;100.00;99154.50;4128502;28;20204;-49
2022/10/29 05:26:46;;;;;;;3.85;3.53;;;;;;;12.92;100.00;99147.75;4130528;28;20704;-51
2022/10/29 05:28:50;;;;;;;6.25;3.55;;;;;;;12.89;100.00;99150.97;4133179;28;20209;-50
2022/10/29 05:30:52;;;;;;;3.60;3.30;;;;;;;12.97;100.00;99147.84;4131205;28;20205;-49
2022/10/29 05:32:54;;;;;;;4.10;3.53;;;;;;;12.88;100.00;99152.06;4131173;28;20210;-49
2022/10/29 05:34:56;;;;;;;3.90;3.60;;;;;;;12.91;100.00;99151.56;4132313;28;20229;-49
2022/10/29 05:36:58;;;;;;;3.55;2.95;;;;;;;13.04;100.00;99153.19;4131894;28;20308;-49
2022/10/29 05:39:00;;;;;;;6.30;3.72;;;;;;;12.90;100.00;99158.13;4134147;28;20364;-51
2022/10/29 05:41:01;;;;;;;3.63;2.85;;;;;;;12.89;100.00;99155.66;4117797;28;20296;-50
2022/10/29 05:43:03;;;;;;;3.30;3.00;;;;;;;12.86;100.00;99156.97;4134955;28;20223;-50
2022/10/29 05:45:06;;;;;;;2.67;2.47;;;;;;;12.89;100.00;99156.47;4136774;28;20209;-49
2022/10/29 05:47:07;;;;;;;3.55;2.95;;;;;;;12.91;100.00;99157.03;4131957;28;20217;-50
2022/10/29 05:49:11;;;;;;;4.07;3.13;;;;;;;12.94;100.00;99152.97;4133097;28;20312;-49
2022/10/29 05:51:13;;;;;;;4.47;3.47;;;;;;;12.97;100.00;99147.84;4122330;28;20212;-49
2022/10/29 05:53:14;;;;;;;2.97;2.42;;;;;;;12.97;100.00;99147.84;4137279;28;20210;-50
2022/10/29 05:55:16;;;;;;;3.33;2.78;;;;;;;12.96;100.00;99150.88;4129290;28;20231;-49
2022/10/29 05:57:19;;;;;;;3.33;3.03;;;;;;;12.94;100.00;99142.81;4133629;28;20316;-50
2022/10/29 05:59:21;;;;;;;3.42;2.95;;;;;;;12.93;100.00;99146.66;4135938;28;20206;-49
2022/10/29 06:01:22;;;;;;;4.28;3.65;;;;;;;12.91;100.00;99143.31;4133780;28;20328;-49
2022/10/29 06:03:24;;;;;;;5.63;3.40;;;;;;;12.89;100.00;99148.22;4131713;28;20206;-49
2022/10/29 06:05:27;;;;;;;6.20;3.75;;;;;;;12.97;100.00;99153.34;4132868;28;20668;-49
2022/10/29 06:07:28;;;;;;;3.13;2.83;;;;;;;12.94;100.00;99147.47;4132773;28;20256;-49
2022/10/29 06:09:30;;;;;;;3.50;3.20;;;;;;;12.92;100.00;99145.00;4137574;28;20205;-51
2022/10/29 06:11:32;;;;;;;4.82;4.38;;;;;;;12.92;100.00;99144.16;4150210;28;20727;-49
2022/10/29 06:13:34;;;;;;;3.08;2.78;;;;;;;12.92;100.00;99153.25;4130257;28;20210;-49
2022/10/29 06:15:35;;;;;;;5.78;4.07;;;;;;;12.96;100.00;99145.38;4132181;28;20772;-50
2022/10/29 06:17:41;;;;;;;5.75;3.65;;;;;;;12.94;100.00;99153.81;4135911;28;20218;-50
2022/10/29 06:19:43;;;;;;;12.80;3.78;;;;;;;12.93;100.00;99152.16;4130168;28;20222;-50
2022/10/29 06:21:44;;;;;;;6.88;3.40;;;;;;;12.92;100.00;99156.00;4135171;28;20275;-50
2022/10/29 06:23:46;;;;;;;6.10;4.15;;;;;;;12.95;100.00;99161.00;4132736;28;20216;-50
2022/10/29 06:25:47;;;;;;;4.68;4.32;;;;;;;13.00;100.00;99157.50;4131460;28;20209;-49
2022/10/29 06:28:04;;;;;;;3.58;3.17;;;;;;;12.98;100.00;99156.94;4133618;28;20273;-50
2022/10/29 06:30:06;;;;;;;4.53;3.40;;;;;;;13.00;100.00;99163.84;4131596;28;20691;-50
2022/10/29 06:32:08;;;;;;;4.80;3.72;;;;;;;13.03;100.00;99166.06;4131135;28;20245;-51
2022/10/29 06:34:10;;;;;;;3.75;3.42;;;;;;;13.03;100.00;99163.31;4131423;28;20221;-49
2022/10/29 06:36:11;;;;;;;3.80;3.33;;;;;;;13.02;100.00;99167.16;4128170;28;20273;-50
2022/10/29 06:38:13;;;;;;;3.38;2.58;;;;;;;13.04;100.00;99162.25;4133224;28;20440;-49
2022/10/29 06:40:15;;;;;;;2.90;2.70;;;;;;;13.05;100.00;99166.66;4133604;28;20739;-52
2022/10/29 06:42:17;;;;;;;4.32;3.42;;;;;;;13.10;100.00;99163.19;4130131;28;20300;-50
2022/10/29 06:44:18;;;;;;;4.63;4.18;;;;;;;13.08;100.00;99166.16;4129003;28;20209;-49
2022/10/29 06:46:20;;;;;;;4.45;3.28;;;;;;;13.11;100.00;99171.16;4129125;28;21032;-50
2022/10/29 06:48:22;;;;;;;4.05;3.72;;;;;;;13.13;100.00;99163.50;4135224;28;21144;-49
2022/10/29 06:50:24;;;;;;;7.53;4.22;;;;;;;13.15;100.00;99166.84;4135494;28;20724;-50
2022/10/29 06:52:25;;;;;;;4.68;4.28;;;;;;;13.28;100.00;99169.25;4131206;28;20628;-49
2022/10/29 06:54:27;;;;;;;4.45;4.05;;;;;;;13.22;100.00;99163.91;4132180;28;20237;-50
2022/10/29 06:56:29;;;;;;;5.13;4.15;;;;;;;13.25;100.00;99166.97;4131985;28;20228;-50
2022/10/29 06:58:31;;;;;;;5.10;3.67;;;;;;;13.24;100.00;99159.81;4133735;28;20228;-50
2022/10/29 07:00:33;;;;;;;5.95;4.22;;;;;;;13.23;100.00;99158.16;4131303;28;20575;-50
2022/10/29 07:02:35;;;;;;;4.05;3.75;;;;;;;13.27;100.00;99167.56;4136457;28;20214;-51
2022/10/29 07:04:37;;;;;;;4.25;3.33;;;;;;;13.29;100.00;99170.91;4131921;28;20213;-50
2022/10/29 07:06:38;;;;;;;4.40;3.85;;;;;;;13.37;100.00;99164.97;4131955;28;20629;-50
2022/10/29 07:08:40;;;;;;;4.30;3.25;;;;;;;13.39;100.00;99164.72;4132706;28;20305;-51
2022/10/29 07:10:42;;;;;;;7.70;3.67;;;;;;;13.42;100.00;99172.44;4132597;28;20297;-50
2022/10/29 07:12:44;;;;;;;4.70;4.00;;;;;;;13.45;100.00;99172.81;4133579;28;20296;-51
2022/10/29 07:14:45;;;;;;;3.45;3.05;;;;;;;13.48;100.00;99168.69;4134040;28;20229;-51
2022/10/29 07:16:47;;;;;;;4.10;3.45;;;;;;;13.50;100.00;99170.13;4130721;28;20233;-50
2022/10/29 07:18:48;;;;;;;9.82;4.22;;;;;;;13.55;100.00;99178.44;4145375;28;20209;-50
2022/10/29 07:20:50;;;;;;;4.22;3.78;;;;;;;13.61;100.00;99180.19;4130698;28;20201;-50
2022/10/29 07:22:52;;;;;;;4.32;3.50;;;;;;;13.65;100.00;99173.09;4136035;28;20313;-50
2022/10/29 07:24:53;;;;;;;8.50;4.00;;;;;;;13.69;100.00;99170.69;4131812;28;20206;-50
2022/10/29 07:27:00;;;;;;;4.57;4.18;;;;;;;13.68;100.00;99169.81;4118182;28;20304;-50
2022/10/29 07:29:02;;;;;;;4.68;3.85;;;;;;;13.73;100.00;99169.91;4136488;28;20986;-50
2022/10/29 07:31:04;;;;;;;12.25;4.15;;;;;;;13.79;100.00;99174.41;4135725;28;20205;-50
2022/10/29 07:33:06;;;;;;;4.95;4.18;;;;;;;13.88;100.00;99172.84;4132143;28;20201;-51
2022/10/29 07:35:07;;;;;;;4.60;4.07;;;;;;;13.90;100.00;99178.94;4134001;28;20225;-50
2022/10/29 07:37:09;;;;;;;5.00;4.20;;;;;;;13.94;100.00;99182.84;4138550;28;20225;-50
2022/10/29 07:39:11;;;;;;;3.95;3.65;;;;;;;13.98;100.00;99172.16;4132641;28;20209;-51
2022/10/29 07:41:12;;;;;;;4.13;3.72;;;;;;;14.05;100.00;99187.41;4129609;28;20210;-50
2022/10/29 07:43:15;;;;;;;4.00;3.60;;;;;;;14.14;100.00;99193.28;4130475;28;20309;-49
2022/10/29 07:45:17;;;;;;;3.38;2.67;;;;;;;14.21;100.00;99182.94;4133279;28;20663;-50
2022/10/29 07:47:18;;;;;;;4.07;3.67;;;;;;;14.23;100.00;99186.28;4135869;28;20233;-51
2022/10/29 07:49:20;;;;;;;4.18;3.78;;;;;;;14.25;100.00;99184.94;4130247;28;22544;-50
2022/10/29 07:51:21;;;;;;;4.35;4.05;;;;;;;14.33;100.00;99178.97;4134325;28;20209;-49
2022/10/29 07:53:23;;;;;;;6.20;3.60;;;;;;;14.38;100.00;99181.75;4127185;28;20215;-51
2022/10/29 07:55:25;;;;;;;5.03;4.55;;;;;;;14.44;100.00;99177.97;4124011;28;20209;-50
2022/10/29 07:57:28;;;;;;;4.63;3.65;;;;;;;14.42;100.00;99185.66;4130158;28;20238;-50
2022/10/29 07:59:29;;;;;;;5.75;4.28;;;;;;;14.44;100.00;99183.47;4129153;28;20214;-51
2022/10/29 08:01:31;;;;;;;3.97;3.67;;;;;;;14.49;100.00;99186.28;4129578;28;20866;-50
2022/10/29 08:03:33;;;;;;;4.25;3.67;;;;;;;14.55;100.00;99190.78;4134068;28;20875;-51
2022/10/29 08:05:35;;;;;;;3.28;2.97;;;;;;;14.62;100.00;99202.41;4128281;28;20209;-50
2022/10/29 08:07:36;;;;;;;4.55;3.78;;;;;;;14.68;100.00;99190.34;4128977;28;20588;-50
2022/10/29 08:09:39;;;;;;;3.65;3.35;;;;;;;14.81;100.00;99189.94;4137512;28;20301;-50
2022/10/29 08:11:40;;;;;;;3.88;3.58;;;;;;;14.87;100.00;99193.56;4130497;28;20674;-50
2022/10/29 08:13:42;;;;;;;5.35;4.85;;;;;;;14.93;100.00;99198.88;4135866;28;20711;-50
2022/10/29 08:15:46;;;;;;;3.97;3.38;;;;;;;14.93;100.00;99196.13;4134244;28;20233;-49
2022/10/29 08:17:49;;;;;;;4.00;3.28;;;;;;;14.98;100.00;99200.84;4131732;28;20212;-51
2022/10/29 08:19:50;;;;;;;8.75;3.33;;;;;;;15.00;100.00;99199.50;4130768;28;20587;-49
2022/10/29 08:21:52;;;;;;;4.07;3.58;;;;;;;15.03;100.00;99190.69;4131058;28;20224;-51
2022/10/29 08:23:54;;;;;;;4.75;4.22;;;;;;;15.12;100.00;99200.16;4133992;28;20435;-51
2022/10/29 08:25:57;;;;;;;4.63;3.90;;;;;;;15.19;100.00;99194.41;4129331;28;20256;-51
2022/10/29 08:28:01;;;;;;;9.00;3.83;;;;;;;15.28;100.00;99203.84;4128741;28;20224;-50
2022/10/29 08:30:04;;;;;;;6.18;4.65;;;;;;;15.56;100.00;99204.38;4144993;28;20356;-50
2022/10/29 08:32:06;;;;;;;4.05;3.70;;;;;;;16.37;100.00;99200.97;4141966;28;20247;-51
2022/10/29 08:34:07;;;;;;;6.82;4.38;;;;;;;16.96;100.00;99195.91;4129369;28;20225;-50
2022/10/29 08:36:11;;;;;;;6.75;4.10;;;;;;;17.47;100.00;99201.22;4131234;28;20268;-50
2022/10/29 08:38:14;;;;;;;4.60;4.18;;;;;;;17.56;100.00;99191.25;4133357;28;20237;-50
2022/10/29 08:40:27;;;;;;;6.00;3.33;;;;;;;17.61;99.28;99200.38;4130226;28;20202;-51
2022/10/29 08:42:56;;;;;;;7.03;3.10;;;;;;;17.83;98.78;99203.66;4135069;28;20205;-51
2022/10/29 08:45:10;;;;;;;7.80;3.80;;;;;;;18.06;96.33;99203.03;4137765;28;20206;-50
2022/10/29 08:47:20;;;;;;;4.40;3.47;;;;;;;17.96;94.82;99196.69;4132847;28;20696;-50
2022/10/29 08:49:25;;;;;;;4.35;3.10;;;;;;;18.92;96.96;99197.97;4131126;28;20296;-50
2022/10/29 08:51:38;;;;;;;4.15;2.97;;;;;;;19.77;91.46;99205.66;4131752;28;20312;-50
2022/10/29 08:53:49;;;;;;;5.63;2.97;;;;;;;20.35;87.19;99196.13;4133701;28;21592;-49
2022/10/29 08:56:18;;;;;;;3.22;2.50;;;;;;;20.24;86.09;99195.41;4131724;28;20825;-51
2022/10/29 08:58:30;;;;;;;3.70;3.25;;;;;;;20.75;86.15;99196.44;4146700;28;20210;-49
2022/10/29 09:00:35;;;;;;;3.83;2.85;;;;;;;20.75;83.31;99190.88;4147420;28;20654;-49
2022/10/29 09:02:39;;;;;;;2.60;2.33;;;;;;;20.64;82.83;99200.47;4143192;28;20215;-50
2022/10/29 09:04:40;;;;;;;8.43;3.17;;;;;;;20.14;85.02;99194.69;4144650;28;20204;-51
2022/10/29 09:06:42;;;;;;;12.70;3.17;;;;;;;20.25;84.20;99185.94;4148654;28;20232;-50
2022/10/29 09:09:00;;;;;;;3.65;3.05;;;;;;;20.35;84.04;99191.41;4137010;28;20212;-50
2022/10/29 09:11:24;;;;;;;4.20;2.60;;;;;;;20.94;81.72;99182.56;4121415;28;20295;-49
2022/10/29 09:13:35;;;;;;;3.45;2.90;;;;;;;21.10;81.18;99181.22;4134548;28;20312;-50
2022/10/29 09:15:48;;;;;;;3.17;2.72;;;;;;;21.74;80.02;99172.88;4136490;28;21135;-50
2022/10/29 09:18:08;;;;;;;2.42;2.15;;;;;;;21.87;81.05;99180.44;4147194;28;20203;-50
2022/10/29 09:20:35;;;;;;;3.83;2.97;;;;;;;22.71;77.75;99177.09;4133036;28;20316;-50
2022/10/29 09:22:52;;;;;;;5.57;2.58;;;;;;;23.17;75.60;99172.16;4145291;28;20210;-50
2022/10/29 09:25:17;;;;;;;7.13;2.53;;;;;;;23.26;75.64;99170.25;4160104;28;20359;-49
2022/10/29 09:27:49;;;;;;;2.65;1.92;;;;;;;23.18;74.83;99177.41;4130530;28;21010;-50
2022/10/29 09:30:12;;;;;;;3.25;2.95;;;;;;;23.30;74.35;99176.84;4133009;28;20224;-50
2022/10/29 09:32:16;;;;;;;2.80;2.20;;;;;;;23.43;74.38;99160.00;4132989;28;20588;-50
2022/10/29 09:34:29;;;;;;;5.90;2.15;;;;;;;23.39;74.76;99163.75;4133924;28;20251;-50
2022/10/29 09:36:31;;;;;;;3.00;2.70;;;;;;;22.90;75.50;99166.63;4136986;28;20705;-49
2022/10/29 09:38:41;;;;;;;4.15;2.67;;;;;;;22.99;76.97;99156.34;4117324;28;20206;-50
2022/10/29 09:40:43;;;;;;;3.67;2.90;;;;;;;23.21;76.11;99156.38;4144278;28;20295;-49
2022/10/29 09:42:46;;;;;;;3.15;2.58;;;;;;;23.25;75.90;99154.63;4129289;28;20200;-49